Time;durP1;ratioP1;P1;durP2;ratioP2;P2;SDS_P1;SDS_P2;PMS_P1;PMS_P2;Temp;Humidity;BMP_temperature;BMP_pressure;BME280_temperature;BME280_humidity;BME280_pressure;Samples;Min_cycle;Max_cycle;Signal;HPM_P1;HPM_P2
2022/08/03 00:01:37;;;;;;;4.15;2.78;;;21.30;99.90;;;;;;4971382;28;20051;-76
2022/08/03 00:04:04;;;;;;;4.15;2.83;;;21.30;99.90;;;;;;4972268;28;20035;-75
2022/08/03 00:06:29;;;;;;;17.55;2.58;;;21.30;99.90;;;;;;4971905;28;20049;-74
2022/08/03 00:08:55;;;;;;;3.42;2.10;;;21.20;99.90;;;;;;4971544;28;20744;-75
2022/08/03 00:11:21;;;;;;;4.35;2.90;;;21.20;99.90;;;;;;4971672;28;20050;-75
2022/08/03 00:13:46;;;;;;;3.88;2.70;;;21.20;99.90;;;;;;4954826;28;20028;-75
2022/08/03 00:16:12;;;;;;;3.40;2.10;;;21.20;99.90;;;;;;4971982;28;20137;-77
2022/08/03 00:18:38;;;;;;;2.63;1.88;;;21.20;99.90;;;;;;4972206;28;20046;-75
2022/08/03 00:21:04;;;;;;;3.45;2.42;;;21.10;99.90;;;;;;4971325;28;20042;-76
2022/08/03 00:23:29;;;;;;;6.13;1.98;;;21.00;99.90;;;;;;4971803;28;20027;-75
2022/08/03 00:25:55;;;;;;;5.78;2.92;;;21.10;99.90;;;;;;4971769;28;20104;-75
2022/08/03 00:28:21;;;;;;;5.55;2.70;;;21.00;99.90;;;;;;4953583;28;20031;-74
2022/08/03 00:30:47;;;;;;;2.90;2.00;;;20.90;99.90;;;;;;4970912;28;20114;-75
2022/08/03 00:33:13;;;;;;;5.90;2.67;;;20.80;99.90;;;;;;4955113;28;20023;-74
2022/08/03 00:35:38;;;;;;;3.08;2.10;;;20.90;99.90;;;;;;4974644;28;20047;-74
2022/08/03 00:38:04;;;;;;;2.60;1.90;;;20.70;99.90;;;;;;4974840;28;20063;-75
2022/08/03 00:40:32;;;;;;;5.18;2.50;;;20.70;99.90;;;;;;4957997;28;20027;-75
2022/08/03 00:43:03;;;;;;;4.43;2.83;;;20.70;99.90;;;;;;4957345;28;20084;-74
2022/08/03 00:45:31;;;;;;;5.07;3.25;;;20.70;99.90;;;;;;4974754;28;20035;-75
2022/08/03 00:47:58;;;;;;;8.02;2.25;;;20.60;99.90;;;;;;4974317;28;20027;-75
2022/08/03 00:50:26;;;;;;;3.63;2.58;;;20.60;99.90;;;;;;4974640;28;20026;-75
2022/08/03 00:52:54;;;;;;;5.07;3.10;;;20.50;99.90;;;;;;4956965;28;20090;-75
2022/08/03 00:55:20;;;;;;;4.80;1.85;;;20.50;99.90;;;;;;4974698;28;20031;-76
2022/08/03 00:57:46;;;;;;;3.78;2.28;;;20.40;99.90;;;;;;4974339;28;20020;-73
2022/08/03 01:00:13;;;;;;;3.05;2.10;;;20.40;99.90;;;;;;4956668;28;20156;-74
2022/08/03 01:02:40;;;;;;;7.68;3.03;;;20.40;99.90;;;;;;4974654;28;20472;-74
2022/08/03 01:05:06;;;;;;;4.75;2.63;;;20.40;99.90;;;;;;4974066;28;20026;-74
2022/08/03 01:07:52;;;;;;;3.45;2.08;;;20.40;99.90;;;;;;4974964;28;20043;-74
2022/08/03 01:10:43;;;;;;;3.63;2.47;;;20.40;99.90;;;;;;4974134;28;20027;-74
2022/08/03 01:13:33;;;;;;;7.13;3.25;;;20.40;99.90;;;;;;4974481;28;20027;-75
2022/08/03 01:16:02;;;;;;;3.08;2.25;;;20.40;99.90;;;;;;4974426;28;20026;-74
2022/08/03 01:18:52;;;;;;;7.53;2.70;;;20.40;99.90;;;;;;4955942;28;20023;-73
2022/08/03 01:21:27;;;;;;;5.25;2.42;;;20.40;99.90;;;;;;4919170;28;20039;-73
2022/08/03 01:24:54;;;;;;;4.25;2.35;;;20.40;99.90;;;;;;4973964;28;20091;-74
2022/08/03 01:27:22;;;;;;;3.35;2.20;;;20.30;99.90;;;;;;4876022;29;20045;-74
2022/08/03 01:30:06;;;;;;;5.75;2.58;;;20.30;99.90;;;;;;4870284;29;20187;-73
2022/08/03 01:32:56;;;;;;;3.20;2.15;;;20.20;99.90;;;;;;4938327;28;20050;-74
2022/08/03 01:35:28;;;;;;;6.10;2.92;;;20.20;99.90;;;;;;4955749;28;20150;-74
2022/08/03 01:37:59;;;;;;;6.57;2.38;;;20.10;99.90;;;;;;4973186;28;20378;-74
2022/08/03 01:40:27;;;;;;;6.20;2.85;;;20.10;99.90;;;;;;4973796;28;20889;-74
2022/08/03 01:42:56;;;;;;;9.18;2.83;;;20.10;99.90;;;;;;4973931;28;20035;-74
2022/08/03 01:45:23;;;;;;;3.13;2.17;;;20.00;99.90;;;;;;4973647;28;20038;-74
2022/08/03 01:47:50;;;;;;;4.35;2.10;;;20.00;99.90;;;;;;4973056;28;20119;-74
2022/08/03 01:50:21;;;;;;;4.18;2.63;;;19.90;99.90;;;;;;4956386;28;20016;-73
2022/08/03 01:52:47;;;;;;;9.55;2.40;;;19.90;99.90;;;;;;4955596;28;20039;-74
2022/08/03 01:55:17;;;;;;;5.22;2.33;;;19.90;99.90;;;;;;4974585;28;20054;-74
2022/08/03 01:57:45;;;;;;;4.78;2.50;;;19.90;99.90;;;;;;4974450;28;20041;-74
2022/08/03 02:00:12;;;;;;;6.40;2.70;;;19.80;99.90;;;;;;4973435;28;20027;-75
2022/08/03 02:02:39;;;;;;;5.18;2.22;;;19.80;99.90;;;;;;4974587;28;20022;-74
2022/08/03 02:05:08;;;;;;;3.78;2.10;;;19.80;99.90;;;;;;4973627;28;20051;-75
2022/08/03 02:07:35;;;;;;;4.47;2.50;;;19.70;99.90;;;;;;4972487;28;20039;-73
2022/08/03 02:10:03;;;;;;;3.15;1.80;;;19.60;99.90;;;;;;4973210;28;20031;-74
2022/08/03 02:12:31;;;;;;;3.72;2.33;;;19.60;99.90;;;;;;4972994;28;20055;-74
2022/08/03 02:14:58;;;;;;;4.60;2.20;;;19.60;99.90;;;;;;4973091;28;20042;-74
2022/08/03 02:17:26;;;;;;;5.32;2.63;;;19.50;99.90;;;;;;4972926;28;20419;-74
2022/08/03 02:19:53;;;;;;;6.13;2.28;;;19.40;99.90;;;;;;4972974;28;20104;-74
2022/08/03 02:22:20;;;;;;;4.88;2.38;;;19.50;99.90;;;;;;4973023;28;20027;-75
2022/08/03 02:24:46;;;;;;;4.85;2.35;;;19.40;99.90;;;;;;4972564;28;20033;-74
2022/08/03 02:27:23;;;;;;;4.47;2.28;;;19.40;99.90;;;;;;4972984;28;20062;-74
2022/08/03 02:29:54;;;;;;;5.28;1.92;;;19.50;99.90;;;;;;4955785;28;20043;-74
2022/08/03 02:32:29;;;;;;;7.95;3.08;;;19.40;99.90;;;;;;4973687;28;20027;-75
2022/08/03 02:34:58;;;;;;;6.78;2.42;;;19.50;99.90;;;;;;4973760;28;20609;-74
2022/08/03 02:37:29;;;;;;;4.53;2.40;;;19.40;99.90;;;;;;4972712;28;20038;-74
2022/08/03 02:40:00;;;;;;;4.03;2.25;;;19.40;99.90;;;;;;4972803;28;20546;-75
2022/08/03 02:42:28;;;;;;;6.95;2.35;;;19.40;99.90;;;;;;4972591;28;20650;-73
2022/08/03 02:44:57;;;;;;;2.83;1.65;;;19.40;99.90;;;;;;4973074;28;20035;-73
2022/08/03 02:47:26;;;;;;;6.10;2.53;;;19.40;99.90;;;;;;4954879;28;20046;-73
2022/08/03 02:49:54;;;;;;;3.33;2.13;;;19.30;99.90;;;;;;4973023;28;20089;-74
2022/08/03 02:52:23;;;;;;;6.53;2.78;;;19.30;99.90;;;;;;4954490;28;20034;-74
2022/08/03 02:54:52;;;;;;;3.15;2.10;;;19.30;99.90;;;;;;4973370;28;20110;-74
2022/08/03 02:57:20;;;;;;;4.47;2.30;;;19.20;99.90;;;;;;4971119;28;20034;-74
2022/08/03 02:59:47;;;;;;;6.32;1.90;;;19.20;99.90;;;;;;4971634;28;20023;-73
2022/08/03 03:02:15;;;;;;;3.00;2.15;;;19.30;99.90;;;;;;4972391;28;20034;-74
2022/08/03 03:04:41;;;;;;;3.38;2.20;;;19.30;99.90;;;;;;4972503;28;20027;-74
2022/08/03 03:07:08;;;;;;;4.38;2.55;;;19.20;99.90;;;;;;4972289;28;20053;-74
2022/08/03 03:09:33;;;;;;;11.45;2.40;;;19.20;99.90;;;;;;4954494;28;20119;-73
2022/08/03 03:12:01;;;;;;;4.57;2.85;;;19.10;99.90;;;;;;4972561;28;20131;-75
2022/08/03 03:14:27;;;;;;;2.33;2.05;;;19.10;99.90;;;;;;4973089;28;20114;-75
2022/08/03 03:16:54;;;;;;;5.60;2.35;;;19.00;99.90;;;;;;4954640;28;20109;-74
2022/08/03 03:19:20;;;;;;;4.53;2.47;;;19.10;99.90;;;;;;4971998;28;20043;-75
2022/08/03 03:21:47;;;;;;;3.20;2.03;;;19.10;99.90;;;;;;4971075;28;20539;-75
2022/08/03 03:24:13;;;;;;;7.70;2.83;;;19.00;99.90;;;;;;4972369;28;20019;-75
2022/08/03 03:26:39;;;;;;;3.80;2.47;;;18.90;99.90;;;;;;4972301;28;20042;-75
2022/08/03 03:29:06;;;;;;;8.48;2.67;;;18.90;99.90;;;;;;4972196;28;20019;-75
2022/08/03 03:31:31;;;;;;;4.35;2.25;;;18.90;99.90;;;;;;4955006;28;20035;-75
2022/08/03 03:33:58;;;;;;;3.95;1.95;;;18.90;99.90;;;;;;4971391;28;20027;-75
2022/08/03 03:36:23;;;;;;;3.88;2.50;;;18.80;99.90;;;;;;4970932;28;20047;-74
2022/08/03 03:38:49;;;;;;;6.47;2.53;;;18.90;99.90;;;;;;4972581;28;20063;-74
2022/08/03 03:41:14;;;;;;;6.10;2.38;;;18.80;99.90;;;;;;4971740;28;20126;-74
2022/08/03 03:43:41;;;;;;;4.55;2.55;;;18.80;99.90;;;;;;4971638;28;20050;-74
2022/08/03 03:46:06;;;;;;;4.70;1.98;;;18.80;99.90;;;;;;4972205;28;20069;-74
2022/08/03 03:48:32;;;;;;;5.63;3.00;;;18.70;99.90;;;;;;4971852;28;20066;-74
2022/08/03 03:50:58;;;;;;;4.47;2.10;;;18.70;99.90;;;;;;4971573;28;20551;-74
2022/08/03 03:53:24;;;;;;;4.68;2.78;;;18.70;99.90;;;;;;4971458;28;20071;-74
2022/08/03 03:55:51;;;;;;;4.95;2.75;;;18.70;99.90;;;;;;4971229;28;20046;-74
2022/08/03 03:58:17;;;;;;;3.60;1.75;;;18.70;99.90;;;;;;4971974;28;20054;-74
2022/08/03 04:00:44;;;;;;;4.95;2.58;;;18.70;99.90;;;;;;4972070;28;20030;-74
2022/08/03 04:03:10;;;;;;;4.80;2.53;;;18.70;99.90;;;;;;4972131;28;20179;-74
2022/08/03 04:11:08;;;;;;;4.80;2.83;;;18.70;99.90;;;;;;4976280;28;20151;-74
2022/08/03 04:13:41;;;;;;;5.78;3.20;;;18.70;99.90;;;;;;4958006;28;20019;-73
2022/08/03 04:16:11;;;;;;;7.25;3.20;;;18.70;99.90;;;;;;4975710;28;20470;-74
2022/08/03 04:18:40;;;;;;;5.53;3.15;;;18.70;99.90;;;;;;4957657;28;20046;-75
2022/08/03 04:21:09;;;;;;;6.32;3.58;;;18.70;99.90;;;;;;4976876;28;20062;-74
2022/08/03 04:23:40;;;;;;;4.88;2.70;;;18.60;99.90;;;;;;4957885;28;20148;-75
2022/08/03 04:26:08;;;;;;;17.77;3.00;;;18.60;99.90;;;;;;4975578;28;20122;-76
2022/08/03 04:28:36;;;;;;;6.50;3.67;;;18.60;99.90;;;;;;4974950;28;20098;-74
2022/08/03 04:31:05;;;;;;;7.10;3.03;;;18.50;99.90;;;;;;4975024;28;20105;-74
2022/08/03 04:33:34;;;;;;;6.30;3.20;;;18.50;99.90;;;;;;4975467;28;20098;-74
2022/08/03 04:36:03;;;;;;;4.88;3.10;;;18.50;99.90;;;;;;4957120;28;20047;-73
2022/08/03 04:38:30;;;;;;;8.52;3.80;;;18.50;99.90;;;;;;4975267;28;20046;-73
2022/08/03 04:40:56;;;;;;;6.85;3.10;;;18.60;99.90;;;;;;4976273;28;20035;-74
2022/08/03 04:43:21;;;;;;;9.25;3.40;;;18.60;99.90;;;;;;4956982;28;20025;-73
2022/08/03 04:45:50;;;;;;;8.73;3.28;;;18.60;99.90;;;;;;4975470;28;20042;-73
2022/08/03 04:48:16;;;;;;;15.32;3.25;;;18.70;99.90;;;;;;4974227;28;20027;-74
2022/08/03 04:50:42;;;;;;;11.90;3.97;;;18.70;99.90;;;;;;4974374;28;20019;-75
2022/08/03 04:53:08;;;;;;;5.90;3.85;;;18.70;99.90;;;;;;4974891;28;20086;-74
2022/08/03 04:55:35;;;;;;;8.20;3.58;;;18.70;99.90;;;;;;4975188;28;20046;-74
2022/08/03 04:58:02;;;;;;;9.52;3.47;;;18.90;99.90;;;;;;4975374;28;20094;-74
2022/08/03 05:00:28;;;;;;;5.95;3.58;;;18.90;99.90;;;;;;4975137;28;20037;-75
2022/08/03 05:02:54;;;;;;;25.25;3.85;;;18.90;99.90;;;;;;4956621;28;20022;-75
2022/08/03 05:05:20;;;;;;;5.90;3.05;;;18.90;99.90;;;;;;4956979;28;20050;-75
2022/08/03 05:07:46;;;;;;;6.35;3.40;;;18.90;99.90;;;;;;4956908;28;20063;-76
2022/08/03 05:10:12;;;;;;;4.78;2.83;;;18.90;99.90;;;;;;4975972;28;20091;-75
2022/08/03 05:12:38;;;;;;;4.93;3.08;;;19.00;99.90;;;;;;4976297;28;20074;-75
2022/08/03 05:15:05;;;;;;;5.47;3.15;;;19.00;99.90;;;;;;4975169;28;20099;-73
2022/08/03 05:17:32;;;;;;;7.10;3.38;;;19.00;99.90;;;;;;4956565;28;20031;-75
2022/08/03 05:19:59;;;;;;;4.57;2.95;;;19.00;99.90;;;;;;4973037;28;20027;-74
2022/08/03 05:22:24;;;;;;;2.85;2.30;;;19.00;99.90;;;;;;4954151;28;20023;-74
2022/08/03 05:24:50;;;;;;;7.78;3.17;;;19.00;99.90;;;;;;4956182;28;20039;-74
2022/08/03 05:27:18;;;;;;;5.90;2.83;;;19.10;99.90;;;;;;4974462;28;20049;-74
2022/08/03 05:29:45;;;;;;;5.35;3.50;;;19.10;99.90;;;;;;4956434;28;20024;-74
2022/08/03 05:32:10;;;;;;;4.05;2.95;;;19.10;99.90;;;;;;4974850;28;20023;-75
2022/08/03 05:34:36;;;;;;;6.60;3.63;;;19.20;99.90;;;;;;4974183;28;20054;-74
2022/08/03 05:37:02;;;;;;;6.63;3.35;;;19.30;99.90;;;;;;4974661;28;20031;-74
2022/08/03 05:39:27;;;;;;;8.40;3.22;;;19.30;99.90;;;;;;4955825;28;20031;-73
2022/08/03 05:41:53;;;;;;;10.02;3.85;;;19.30;99.90;;;;;;4957044;28;20058;-73
2022/08/03 05:44:19;;;;;;;14.13;3.55;;;19.40;99.90;;;;;;4974123;28;20476;-75
2022/08/03 05:46:44;;;;;;;4.30;3.13;;;19.40;99.90;;;;;;4974977;28;20136;-76
2022/08/03 05:49:10;;;;;;;15.82;3.33;;;19.50;99.90;;;;;;4974729;28;20035;-74
2022/08/03 05:51:36;;;;;;;5.00;3.08;;;19.60;99.90;;;;;;4975114;28;20034;-74
2022/08/03 05:54:02;;;;;;;9.05;3.60;;;19.60;99.90;;;;;;4974156;28;20035;-75
2022/08/03 05:56:28;;;;;;;5.40;3.20;;;19.70;99.90;;;;;;4974497;28;20028;-74
2022/08/03 05:58:53;;;;;;;6.10;3.28;;;19.70;99.90;;;;;;4974185;28;20023;-76
2022/08/03 06:01:22;;;;;;;11.80;3.25;;;19.80;99.90;;;;;;4956499;28;20027;-77
2022/08/03 06:03:48;;;;;;;6.72;3.00;;;19.90;99.90;;;;;;4956284;28;20019;-74
2022/08/03 06:06:15;;;;;;;6.72;3.13;;;20.00;99.90;;;;;;4973586;28;20085;-75
2022/08/03 06:08:41;;;;;;;6.57;3.58;;;20.10;99.90;;;;;;4958364;28;20344;-74
2022/08/03 06:11:07;;;;;;;4.65;2.80;;;20.10;99.90;;;;;;4973951;28;20035;-74
2022/08/03 06:13:33;;;;;;;6.25;3.55;;;20.20;99.90;;;;;;4973027;28;20031;-73
2022/08/03 06:15:59;;;;;;;3.88;2.60;;;20.30;99.90;;;;;;4972615;28;20046;-74
2022/08/03 06:18:24;;;;;;;4.95;2.65;;;20.20;99.90;;;;;;4972693;28;20027;-75
2022/08/03 06:20:51;;;;;;;5.97;3.08;;;20.40;99.90;;;;;;4974140;28;20070;-76
2022/08/03 06:23:17;;;;;;;5.03;2.95;;;20.50;99.90;;;;;;4973809;28;20122;-76
2022/08/03 06:25:42;;;;;;;7.57;3.40;;;20.60;99.90;;;;;;4974676;28;20087;-76
2022/08/03 06:28:08;;;;;;;5.75;2.88;;;20.60;99.90;;;;;;4973203;28;20115;-75
2022/08/03 06:30:35;;;;;;;3.97;2.30;;;20.70;99.90;;;;;;4956886;28;20023;-76
2022/08/03 06:33:00;;;;;;;5.97;3.70;;;20.90;99.90;;;;;;4973199;28;20102;-75
2022/08/03 06:35:26;;;;;;;6.78;2.55;;;20.90;99.90;;;;;;4971486;28;20046;-75
2022/08/03 06:37:53;;;;;;;6.88;3.70;;;21.00;99.90;;;;;;4973359;28;20030;-77
2022/08/03 06:40:27;;;;;;;5.53;2.05;;;21.10;99.90;;;;;;4973598;28;20035;-78
2022/08/03 06:42:54;;;;;;;2.75;2.03;;;21.20;99.90;;;;;;4972262;28;20022;-76
2022/08/03 06:45:23;;;;;;;3.08;1.80;;;21.30;99.90;;;;;;4956594;28;20058;-76
2022/08/03 06:48:05;;;;;;;15.88;2.28;;;21.50;99.90;;;;;;4956707;28;20031;-73
2022/08/03 06:50:32;;;;;;;5.07;1.55;;;21.60;99.90;;;;;;4956541;28;20087;-74
2022/08/03 06:52:58;;;;;;;9.98;2.00;;;21.80;99.90;;;;;;4971584;28;20140;-75
2022/08/03 06:55:24;;;;;;;2.47;1.42;;;21.90;99.90;;;;;;4974945;28;20491;-78
2022/08/03 06:57:50;;;;;;;4.28;1.25;;;21.90;99.90;;;;;;4973944;28;20042;-73
2022/08/03 07:00:16;;;;;;;2.92;1.58;;;22.10;99.90;;;;;;4974187;28;20031;-77
2022/08/03 07:02:42;;;;;;;1.85;1.30;;;22.20;99.90;;;;;;4974289;28;20033;-76
2022/08/03 07:05:08;;;;;;;2.63;1.38;;;22.30;99.90;;;;;;4972588;28;20480;-73
2022/08/03 07:07:34;;;;;;;2.05;1.20;;;22.30;99.90;;;;;;4973095;28;20046;-72
2022/08/03 07:10:00;;;;;;;4.15;1.50;;;22.30;99.90;;;;;;4972310;28;20122;-73
2022/08/03 07:12:27;;;;;;;6.35;2.03;;;22.30;99.90;;;;;;4972102;28;20031;-74
2022/08/03 07:14:53;;;;;;;3.60;1.35;;;22.40;99.90;;;;;;4972810;28;20038;-75
2022/08/03 07:17:19;;;;;;;1.48;0.82;;;22.40;99.90;;;;;;4955546;28;20038;-76
2022/08/03 07:19:45;;;;;;;3.10;1.60;;;22.50;99.90;;;;;;4973657;28;20102;-79
2022/08/03 07:22:10;;;;;;;2.28;1.20;;;22.50;99.90;;;;;;4972236;28;20037;-74
2022/08/03 07:24:36;;;;;;;2.30;1.20;;;22.60;99.90;;;;;;4971920;28;20062;-75
2022/08/03 07:27:02;;;;;;;2.15;1.48;;;22.70;99.90;;;;;;4972126;28;20047;-75
2022/08/03 07:29:28;;;;;;;3.53;1.58;;;22.80;99.90;;;;;;4974295;28;20038;-76
2022/08/03 07:31:54;;;;;;;3.03;1.63;;;22.80;99.90;;;;;;4956707;28;20043;-72
2022/08/03 07:34:19;;;;;;;2.00;1.27;;;22.90;99.90;;;;;;4972156;28;20059;-73
2022/08/03 07:36:45;;;;;;;3.85;1.80;;;23.00;99.90;;;;;;4972268;28;20144;-74
2022/08/03 07:39:11;;;;;;;2.17;1.40;;;23.10;99.90;;;;;;4954889;28;20027;-73
2022/08/03 07:41:36;;;;;;;5.05;1.35;;;23.10;99.90;;;;;;4973521;28;20046;-75
2022/08/03 07:44:02;;;;;;;2.33;1.38;;;23.20;99.90;;;;;;4976399;28;20038;-74
2022/08/03 07:46:28;;;;;;;2.08;1.40;;;23.30;99.90;;;;;;4976152;28;20053;-74
2022/08/03 07:48:54;;;;;;;2.55;1.30;;;23.30;99.90;;;;;;4976815;28;20086;-75
2022/08/03 07:51:19;;;;;;;5.18;1.25;;;23.40;99.90;;;;;;4976493;28;20031;-74
2022/08/03 07:53:45;;;;;;;4.80;1.23;;;23.40;99.90;;;;;;4959233;28;20030;-72
2022/08/03 07:56:15;;;;;;;3.30;1.80;;;23.50;99.90;;;;;;4976706;28;20026;-77
2022/08/03 07:58:41;;;;;;;2.35;1.45;;;23.70;99.90;;;;;;4976370;28;20046;-76
2022/08/03 08:01:07;;;;;;;3.17;1.30;;;23.90;99.90;;;;;;4976293;28;20043;-75
2022/08/03 08:03:33;;;;;;;3.05;1.20;;;23.80;99.90;;;;;;4976330;28;20039;-74
2022/08/03 08:05:58;;;;;;;5.72;1.85;;;23.90;99.90;;;;;;4976949;28;20043;-74
2022/08/03 08:08:24;;;;;;;14.30;1.80;;;23.90;99.90;;;;;;4976944;28;20023;-73
2022/08/03 08:10:50;;;;;;;4.40;0.93;;;24.00;99.90;;;;;;4975526;28;20027;-76
2022/08/03 08:13:15;;;;;;;3.70;1.55;;;24.10;99.90;;;;;;4975416;28;20407;-77
2022/08/03 08:15:41;;;;;;;6.15;1.70;;;24.20;99.90;;;;;;4975455;28;20046;-74
2022/08/03 08:18:06;;;;;;;2.17;1.40;;;24.30;99.90;;;;;;4976154;28;20031;-78
2022/08/03 08:20:36;;;;;;;2.13;1.30;;;24.40;99.90;;;;;;4976969;28;20066;-77
2022/08/03 08:23:05;;;;;;;1.88;0.95;;;24.50;99.90;;;;;;4975485;28;20027;-75
2022/08/03 08:25:32;;;;;;;5.80;1.33;;;24.60;99.90;;;;;;4976628;28;20022;-73
2022/08/03 08:28:03;;;;;;;2.17;0.90;;;24.60;99.90;;;;;;4976358;28;20031;-73
2022/08/03 08:30:30;;;;;;;1.23;1.10;;;24.70;99.90;;;;;;4959060;28;20656;-75
2022/08/03 08:32:56;;;;;;;4.00;1.17;;;24.70;99.90;;;;;;4975662;28;20022;-72
2022/08/03 08:35:22;;;;;;;1.98;1.02;;;24.70;99.90;;;;;;4974806;28;20059;-76
2022/08/03 08:37:48;;;;;;;3.42;1.50;;;24.80;99.90;;;;;;4975645;28;20118;-73
2022/08/03 08:40:14;;;;;;;6.38;1.70;;;24.80;99.90;;;;;;4976270;28;20027;-74
2022/08/03 08:42:40;;;;;;;2.65;1.27;;;24.90;99.90;;;;;;4975451;28;20026;-76
2022/08/03 08:45:08;;;;;;;2.20;1.35;;;24.90;99.90;;;;;;4975717;28;20054;-73
2022/08/03 08:47:37;;;;;;;6.53;1.45;;;25.00;99.90;;;;;;4976101;28;20098;-72
2022/08/03 08:50:06;;;;;;;4.75;1.58;;;25.20;99.90;;;;;;4974415;28;20035;-75
2022/08/03 08:52:34;;;;;;;1.30;1.00;;;25.20;99.90;;;;;;4974514;28;20035;-76
2022/08/03 08:55:02;;;;;;;6.45;2.08;;;25.40;99.90;;;;;;4973728;28;20027;-74
2022/08/03 08:57:32;;;;;;;1.83;1.02;;;25.50;99.90;;;;;;4974629;28;20604;-75
2022/08/03 08:59:58;;;;;;;8.05;1.60;;;25.50;99.90;;;;;;4975602;28;20051;-75
2022/08/03 09:02:24;;;;;;;1.77;1.05;;;25.60;99.90;;;;;;4974716;28;20023;-77
2022/08/03 09:04:50;;;;;;;3.83;1.20;;;25.60;99.90;;;;;;4956857;28;20019;-74
2022/08/03 09:07:17;;;;;;;1.90;0.95;;;25.80;99.90;;;;;;4959151;28;20133;-75
2022/08/03 09:09:42;;;;;;;8.07;1.83;;;25.80;99.90;;;;;;4958412;28;20031;-76
2022/08/03 09:12:08;;;;;;;3.30;1.27;;;25.90;99.90;;;;;;4975218;28;20049;-74
2022/08/03 09:14:34;;;;;;;2.50;1.10;;;25.90;99.90;;;;;;4975110;28;20041;-75
2022/08/03 09:17:02;;;;;;;7.88;1.27;;;25.90;99.90;;;;;;4974521;28;20101;-78
2022/08/03 09:19:29;;;;;;;7.07;1.25;;;25.80;99.90;;;;;;4957920;28;20034;-73
2022/08/03 09:22:16;;;;;;;2.05;1.13;;;25.90;99.90;;;;;;4973859;28;20079;-74
2022/08/03 09:24:56;;;;;;;1.27;0.98;;;25.90;99.90;;;;;;4958149;28;20035;-75
2022/08/03 09:27:22;;;;;;;2.38;1.00;;;25.80;99.90;;;;;;4971310;28;20054;-76
2022/08/03 09:29:52;;;;;;;1.60;1.08;;;25.90;99.90;;;;;;4974387;28;21423;-73
2022/08/03 09:32:23;;;;;;;3.17;1.23;;;25.90;99.90;;;;;;4973521;28;20035;-77
2022/08/03 09:34:50;;;;;;;1.55;1.02;;;26.00;99.90;;;;;;4974156;28;20086;-75
2022/08/03 09:37:18;;;;;;;1.90;1.15;;;26.10;99.90;;;;;;4975804;28;20034;-76
2022/08/03 09:39:45;;;;;;;6.32;1.88;;;26.20;99.90;;;;;;4957995;28;20031;-78
2022/08/03 09:42:16;;;;;;;2.42;1.20;;;26.30;99.90;;;;;;4974909;28;20057;-74
2022/08/03 09:44:50;;;;;;;1.90;0.98;;;26.40;99.90;;;;;;4957453;28;20043;-74
2022/08/03 09:47:28;;;;;;;1.15;0.82;;;26.40;99.90;;;;;;4973618;28;20118;-83
2022/08/03 09:50:02;;;;;;;2.20;1.00;;;26.40;99.90;;;;;;4974316;28;20030;-74
2022/08/03 09:52:38;;;;;;;2.13;1.13;;;26.50;99.90;;;;;;4974050;28;20030;-73
2022/08/03 09:55:12;;;;;;;1.30;0.70;;;26.60;99.90;;;;;;4974401;28;20539;-74
2022/08/03 09:57:39;;;;;;;1.45;0.95;;;26.70;99.90;;;;;;4972953;28;20058;-76
2022/08/03 10:00:08;;;;;;;1.60;0.98;;;26.80;99.90;;;;;;4974902;28;20047;-73
2022/08/03 10:02:34;;;;;;;6.65;1.35;;;26.90;99.90;;;;;;4975100;28;20030;-75
2022/08/03 10:05:00;;;;;;;3.95;0.85;;;27.00;99.90;;;;;;4974373;28;20381;-74
2022/08/03 10:07:26;;;;;;;1.85;0.70;;;27.00;99.90;;;;;;4973983;28;20047;-73
2022/08/03 10:09:59;;;;;;;1.45;0.80;;;27.10;99.90;;;;;;4973757;28;20071;-73
2022/08/03 10:12:26;;;;;;;7.57;1.15;;;27.20;99.90;;;;;;4974242;28;20043;-75
2022/08/03 10:14:52;;;;;;;0.82;0.63;;;27.30;99.90;;;;;;4973217;28;20496;-74
2022/08/03 10:17:19;;;;;;;2.17;1.08;;;27.40;99.90;;;;;;4974197;28;20015;-76
2022/08/03 10:19:46;;;;;;;2.65;1.00;;;27.50;99.90;;;;;;4976602;28;20038;-76
2022/08/03 10:22:21;;;;;;;4.95;1.27;;;27.50;99.90;;;;;;4974951;28;20031;-77
2022/08/03 10:25:07;;;;;;;2.00;0.80;;;27.50;99.90;;;;;;4975739;28;20027;-76
2022/08/03 10:27:36;;;;;;;8.15;0.63;;;27.60;99.90;;;;;;4973740;28;20130;-80
2022/08/03 10:30:06;;;;;;;2.70;0.95;;;27.70;99.90;;;;;;4957078;28;20055;-74
2022/08/03 10:32:41;;;;;;;0.95;0.55;;;27.80;99.90;;;;;;4958380;28;20034;-73
2022/08/03 10:35:13;;;;;;;2.83;1.10;;;27.90;99.90;;;;;;4956776;28;20047;-75
2022/08/03 10:37:43;;;;;;;3.15;0.80;;;28.00;99.90;;;;;;4973276;28;20483;-72
2022/08/03 10:40:13;;;;;;;3.40;1.40;;;28.00;99.90;;;;;;4973955;28;20094;-76
2022/08/03 10:42:41;;;;;;;3.80;1.02;;;28.10;99.90;;;;;;4956518;28;20436;-74
2022/08/03 10:45:29;;;;;;;3.90;1.05;;;28.10;99.90;;;;;;4973818;28;20035;-77
2022/08/03 10:47:58;;;;;;;1.85;0.73;;;28.10;99.90;;;;;;4974111;28;20077;-76
2022/08/03 10:50:24;;;;;;;1.58;0.68;;;28.20;99.90;;;;;;4955598;28;20134;-73
2022/08/03 10:52:57;;;;;;;8.18;1.02;;;28.40;99.90;;;;;;4973099;28;20022;-75
2022/08/03 10:58:39;;;;;;;1.50;0.85;;;28.50;99.90;;;;;;4974794;28;20047;-79
2022/08/03 11:01:10;;;;;;;2.08;0.95;;;28.50;99.90;;;;;;4973601;28;20039;-76
2022/08/03 11:03:51;;;;;;;2.05;0.98;;;28.60;99.90;;;;;;4973481;28;20046;-75
2022/08/03 11:06:21;;;;;;;5.00;1.25;;;28.70;99.90;;;;;;4975453;28;20047;-76
2022/08/03 11:08:48;;;;;;;1.05;0.63;;;28.70;99.90;;;;;;4973980;28;20061;-77
2022/08/03 11:11:17;;;;;;;1.98;0.85;;;28.70;99.90;;;;;;4972638;28;20034;-76
2022/08/03 11:14:06;;;;;;;1.60;0.90;;;28.80;99.90;;;;;;4972578;28;20039;-78
2022/08/03 11:16:35;;;;;;;4.20;1.77;;;28.90;99.90;;;;;;4973468;28;20030;-75
2022/08/03 11:19:03;;;;;;;6.60;1.00;;;29.00;99.90;;;;;;4973334;28;20100;-78
2022/08/03 11:21:55;;;;;;;6.38;1.10;;;29.10;99.90;;;;;;4972635;28;20030;-75
2022/08/03 11:24:39;;;;;;;1.85;0.88;;;29.20;99.90;;;;;;4967696;28;20117;-80
2022/08/03 11:27:20;;;;;;;4.40;1.08;;;29.40;99.90;;;;;;4972535;28;20424;-76
2022/08/03 11:30:05;;;;;;;2.75;1.20;;;29.50;99.90;;;;;;4972550;28;20054;-74
2022/08/03 11:32:36;;;;;;;1.65;0.82;;;29.60;99.90;;;;;;4973108;28;20035;-77
2022/08/03 11:35:12;;;;;;;3.80;1.23;;;29.60;99.90;;;;;;4972534;28;20055;-79
2022/08/03 11:37:53;;;;;;;2.47;1.20;;;29.70;99.90;;;;;;4954926;28;20480;-79
2022/08/03 11:40:48;;;;;;;16.25;1.40;;;29.80;99.90;;;;;;4955224;28;20034;-77
2022/08/03 11:43:29;;;;;;;4.75;1.50;;;29.80;99.90;;;;;;4972516;28;20467;-74
2022/08/03 11:46:00;;;;;;;3.67;0.85;;;30.00;99.90;;;;;;4972118;28;20051;-79
2022/08/03 11:48:36;;;;;;;1.33;0.77;;;30.10;99.90;;;;;;4972697;28;20034;-76
2022/08/03 11:51:05;;;;;;;1.73;0.50;;;30.10;99.90;;;;;;4973736;28;20027;-78
2022/08/03 11:53:31;;;;;;;0.77;0.70;;;30.20;99.90;;;;;;4972777;28;20058;-76
2022/08/03 11:56:01;;;;;;;4.57;1.23;;;30.40;99.90;;;;;;4971505;28;20098;-74
2022/08/03 11:58:28;;;;;;;1.38;0.90;;;30.50;99.90;;;;;;4972271;28;20464;-72
2022/08/03 12:01:06;;;;;;;2.55;0.82;;;30.60;99.90;;;;;;4972822;28;20042;-78
2022/08/03 12:03:33;;;;;;;2.20;1.10;;;30.60;99.90;;;;;;4972830;28;20020;-77
2022/08/03 12:06:01;;;;;;;4.55;0.68;;;30.60;99.90;;;;;;4972800;28;20047;-75
2022/08/03 12:08:26;;;;;;;5.32;1.25;;;30.80;99.90;;;;;;4973867;28;20042;-78
2022/08/03 12:10:53;;;;;;;1.40;0.90;;;30.80;99.90;;;;;;4954212;28;20196;-76
2022/08/03 12:13:20;;;;;;;4.57;0.73;;;30.70;99.90;;;;;;4954105;28;20027;-79
2022/08/03 12:15:52;;;;;;;2.05;0.60;;;30.60;99.90;;;;;;4954255;28;20031;-72
2022/08/03 12:18:19;;;;;;;1.38;0.90;;;30.70;99.90;;;;;;4954498;28;20101;-80
2022/08/03 12:20:46;;;;;;;3.58;0.95;;;30.80;99.90;;;;;;4969852;28;20019;-76
2022/08/03 12:23:12;;;;;;;2.42;0.98;;;31.00;99.90;;;;;;4953648;28;20023;-80
2022/08/03 12:25:40;;;;;;;4.93;0.77;;;31.10;99.90;;;;;;4971862;28;20027;-74
2022/08/03 12:28:11;;;;;;;0.63;0.47;;;31.20;99.90;;;;;;4954952;28;20036;-79
2022/08/03 12:30:38;;;;;;;1.38;0.88;;;31.30;99.90;;;;;;4973573;28;20121;-72
2022/08/03 12:33:22;;;;;;;1.75;0.60;;;31.40;99.90;;;;;;4976591;28;20042;-73
2022/08/03 12:36:06;;;;;;;7.97;1.10;;;31.70;99.90;;;;;;4975053;28;20047;-74
2022/08/03 12:38:35;;;;;;;3.80;1.42;;;31.80;99.90;;;;;;4974639;28;20042;-77
2022/08/03 12:41:07;;;;;;;1.98;0.43;;;32.00;99.90;;;;;;4975167;28;20053;-77
2022/08/03 12:43:33;;;;;;;6.00;0.95;;;32.10;99.90;;;;;;4974813;28;20034;-75
2022/08/03 12:46:14;;;;;;;1.70;0.77;;;32.10;99.90;;;;;;4974568;28;20027;-76
2022/08/03 12:49:02;;;;;;;1.45;0.60;;;32.20;99.90;;;;;;4974555;28;20035;-74
2022/08/03 12:51:33;;;;;;;0.90;0.63;;;32.20;99.90;;;;;;4973497;28;20097;-77
2022/08/03 12:53:59;;;;;;;0.98;0.80;;;32.30;99.90;;;;;;4956268;28;20112;-75
2022/08/03 12:56:26;;;;;;;3.92;0.63;;;32.40;99.90;;;;;;4957598;28;20039;-75
2022/08/03 12:58:52;;;;;;;1.40;0.82;;;32.50;99.90;;;;;;4974208;28;20027;-73
2022/08/03 13:01:21;;;;;;;0.55;0.40;;;32.60;99.90;;;;;;4973815;28;20038;-75
2022/08/03 13:03:49;;;;;;;1.02;0.65;;;32.70;99.90;;;;;;4973946;28;20526;-74